Time;durP1;ratioP1;P1;durP2;ratioP2;P2;SDS_P1;SDS_P2;PMS_P1;PMS_P2;Temp;Humidity;BMP_temperature;BMP_pressure;BME280_temperature;BME280_humidity;BME280_pressure;Samples;Min_cycle;Max_cycle;Signal;HPM_P1;HPM_P2
2021/12/18 00:01:55;;;;;;;;;31.25;26.00;;;;;7.93;69.17;103148.09;5060162;28;45336;-74
2021/12/18 00:04:20;;;;;;;;;30.50;29.00;;;;;7.73;69.09;103120.97;5059910;28;45716;-75
2021/12/18 00:06:49;;;;;;;;;30.25;27.50;;;;;7.35;69.31;103043.34;5064168;27;45404;-74
2021/12/18 00:09:15;;;;;;;;;28.50;25.00;;;;;7.43;69.40;103057.69;5061205;27;45423;-74
2021/12/18 00:11:45;;;;;;;;;30.00;27.00;;;;;7.24;69.28;103027.16;5061484;27;46348;-73
2021/12/18 00:14:11;;;;;;;;;31.50;26.75;;;;;7.32;68.90;103036.28;5067448;28;46809;-74
2021/12/18 00:16:37;;;;;;;;;31.00;25.75;;;;;7.41;69.12;103044.56;5064283;28;45835;-75
2021/12/18 00:19:03;;;;;;;;;28.25;25.75;;;;;7.23;69.11;103033.19;5055190;28;45523;-75
2021/12/18 00:21:30;;;;;;;;;30.50;27.00;;;;;7.97;69.13;103151.75;5064767;28;45747;-75
2021/12/18 00:23:56;;;;;;;;;27.00;23.50;;;;;7.72;69.31;103100.03;5056720;28;45552;-74
2021/12/18 00:26:22;;;;;;;;;25.00;24.00;;;;;7.97;68.97;103150.06;5073379;27;45646;-75
2021/12/18 00:28:48;;;;;;;;;31.00;24.50;;;;;8.03;69.21;103155.56;5066562;28;45478;-75
2021/12/18 00:31:14;;;;;;;;;33.75;29.25;;;;;7.48;68.65;103047.50;5060099;28;45402;-74
2021/12/18 00:33:40;;;;;;;;;29.75;25.00;;;;;7.42;68.62;103042.84;5061845;28;45598;-76
2021/12/18 00:36:06;;;;;;;;;25.25;23.75;;;;;8.01;68.49;103154.59;5053619;28;45546;-75
2021/12/18 00:38:32;;;;;;;;;27.00;23.25;;;;;8.01;68.85;103140.66;5064536;28;45612;-75
2021/12/18 00:41:15;;;;;;;;;27.50;21.00;;;;;8.02;68.64;103143.34;5052499;28;46052;-74
2021/12/18 00:46:28;;;;;;;;;28.25;27.50;;;;;8.02;68.49;103145.97;5072448;28;45406;-76
2021/12/18 00:48:54;;;;;;;;;25.00;24.00;;;;;7.98;68.39;103137.91;5063108;28;45516;-76
2021/12/18 00:51:20;;;;;;;;;27.25;23.00;;;;;7.98;68.79;103124.84;5061006;28;45460;-75
2021/12/18 00:53:46;;;;;;;;;24.25;22.50;;;;;7.76;68.90;103100.28;5072675;28;45477;-74
2021/12/18 00:56:12;;;;;;;;;30.00;24.75;;;;;7.50;68.61;103038.94;5073788;28;45362;-75
2021/12/18 00:58:38;;;;;;;;;25.25;25.25;;;;;7.32;68.42;103032.78;5073681;27;45493;-75
2021/12/18 01:01:08;;;;;;;;;28.00;23.75;;;;;7.43;68.71;103039.44;5077620;27;45329;-75
2021/12/18 01:03:35;;;;;;;;;23.25;20.50;;;;;7.27;68.82;103003.84;5072788;27;46853;-75
2021/12/18 01:06:01;;;;;;;;;29.50;26.75;;;;;7.71;67.77;103086.09;5053741;28;45863;-75
2021/12/18 01:08:27;;;;;;;;;28.25;24.00;;;;;7.52;68.33;103058.19;5055068;28;45524;-74
2021/12/18 01:13:59;;;;;;;;;33.75;23.50;;;;;7.77;68.28;103130.75;5036996;28;46396;-76
2021/12/18 01:16:34;;;;;;;;;28.50;23.50;;;;;7.51;68.78;103077.22;5079185;28;46497;-77
2021/12/18 01:24:28;;;;;;;;;25.25;25.00;;;;;7.37;68.57;103097.38;5076123;28;46202;-75
2021/12/18 01:26:54;;;;;;;;;24.00;19.75;;;;;6.67;68.30;102973.72;5076927;27;45339;-74
2021/12/18 01:29:19;;;;;;;;;25.25;22.75;;;;;7.65;68.68;103154.47;5077123;27;45363;-75
2021/12/18 01:31:45;;;;;;;;;34.25;26.50;;;;;7.05;68.78;103033.13;5077430;27;45466;-75
2021/12/18 01:34:11;;;;;;;;;25.00;23.75;;;;;7.18;68.16;103050.28;5096658;27;46290;-76
2021/12/18 01:36:36;;;;;;;;;27.50;23.50;;;;;7.04;68.52;103013.06;5101727;27;45376;-74
2021/12/18 01:39:04;;;;;;;;;26.75;21.75;;;;;7.83;68.31;103156.25;5102085;27;45398;-74
2021/12/18 01:41:38;;;;;;;;;24.00;22.75;;;;;7.54;68.13;103100.84;5083303;27;45632;-76
2021/12/18 01:52:32;;;;;;;;;25.75;22.50;;;;;7.03;68.38;103036.47;5092303;27;45422;-73
2021/12/18 01:54:58;;;;;;;;;25.75;22.25;;;;;7.26;68.04;103084.56;5059933;28;45407;-77
2021/12/18 01:57:23;;;;;;;;;28.25;23.00;;;;;7.50;67.61;103125.00;5056878;28;45401;-77
2021/12/18 01:59:49;;;;;;;;;28.75;22.75;;;;;7.63;67.69;103158.72;5038080;28;45340;-74
2021/12/18 02:02:15;;;;;;;;;22.75;20.25;;;;;6.85;67.74;103028.53;5059393;28;45888;-75
2021/12/18 02:04:41;;;;;;;;;26.75;24.75;;;;;7.51;68.22;103151.97;5057411;28;45775;-75
2021/12/18 02:07:07;;;;;;;;;28.25;22.00;;;;;6.89;68.30;103065.25;5055726;28;45744;-75
2021/12/18 02:12:20;;;;;;;;;26.50;24.50;;;;;7.40;68.35;103148.78;5096524;27;45447;-76
2021/12/18 02:22:49;;;;;;;;;25.25;21.75;;;;;7.38;68.11;103150.41;5089618;27;45493;-75
2021/12/18 02:25:15;;;;;;;;;32.75;25.25;;;;;7.48;68.49;103157.91;5076255;27;45981;-75
2021/12/18 02:27:40;;;;;;;;;29.00;25.50;;;;;7.31;68.73;103122.22;5076293;28;45722;-74
2021/12/18 02:30:08;;;;;;;;;25.50;21.50;;;;;7.47;67.96;103140.47;5076343;28;45374;-75
2021/12/18 02:32:33;;;;;;;;;23.50;20.50;;;;;7.00;68.30;103073.69;5076143;27;45402;-74
2021/12/18 02:35:04;;;;;;;;;26.00;22.25;;;;;7.50;68.28;103155.38;5075876;27;45467;-73
2021/12/18 02:37:33;;;;;;;;;26.00;24.75;;;;;6.90;67.92;103030.56;5075849;27;45841;-74
2021/12/18 02:42:28;;;;;;;;;24.50;20.50;;;;;7.03;67.82;103055.59;5076093;27;45575;-75
2021/12/18 02:44:53;;;;;;;;;31.25;23.25;;;;;7.17;68.00;103077.19;5079165;27;46646;-74
2021/12/18 02:47:19;;;;;;;;;24.75;22.00;;;;;7.10;67.52;103060.31;5079477;27;45405;-75
2021/12/18 02:49:50;;;;;;;;;32.75;30.75;;;;;7.04;67.12;103052.16;5079909;27;45459;-74
2021/12/18 02:52:18;;;;;;;;;23.25;20.00;;;;;7.28;67.25;103112.50;5079027;28;45375;-73
2021/12/18 02:54:44;;;;;;;;;27.50;25.00;;;;;7.44;67.40;103138.59;5077822;27;45408;-74
2021/12/18 02:57:11;;;;;;;;;23.50;22.00;;;;;7.28;68.11;103109.03;5095470;27;45480;-73
2021/12/18 02:59:48;;;;;;;;;28.75;26.25;;;;;6.99;67.79;103053.63;5095843;27;45468;-77
2021/12/18 03:02:16;;;;;;;;;22.25;22.00;;;;;7.55;67.16;103154.81;5096914;27;45960;-75
2021/12/18 03:04:45;;;;;;;;;27.00;25.50;;;;;6.77;67.33;103018.59;5077857;27;46806;-74
2021/12/18 03:07:13;;;;;;;;;29.50;28.25;;;;;7.51;67.56;103152.84;5075944;27;45783;-73
2021/12/18 03:25:57;;;;;;;;;34.75;28.75;;;;;7.05;67.12;103092.13;5071737;28;45828;-74
2021/12/18 03:28:23;;;;;;;;;35.00;28.50;;;;;6.91;67.57;103062.75;5058650;28;45351;-74
2021/12/18 03:30:48;;;;;;;;;35.75;29.75;;;;;6.92;67.31;103061.94;5055572;28;45378;-74
2021/12/18 03:33:14;;;;;;;;;36.25;31.25;;;;;7.11;67.51;103075.13;5036977;28;45524;-74
2021/12/18 03:35:39;;;;;;;;;33.50;31.75;;;;;7.07;67.13;103059.25;5066732;28;46321;-75
2021/12/18 03:38:05;;;;;;;;;40.00;34.00;;;;;7.61;66.85;103157.75;5079248;27;45634;-74
2021/12/18 03:40:31;;;;;;;;;39.25;31.25;;;;;6.64;66.88;103010.94;5097527;27;45727;-74
2021/12/18 03:42:57;;;;;;;;;36.25;32.25;;;;;6.80;66.91;103042.19;5088699;27;45485;-75
2021/12/18 03:45:23;;;;;;;;;44.75;34.25;;;;;7.23;66.88;103116.59;5058711;28;47106;-74
2021/12/18 03:47:50;;;;;;;;;34.50;29.00;;;;;7.17;67.29;103122.38;5078514;27;45417;-74
2021/12/18 03:50:16;;;;;;;;;38.25;30.00;;;;;7.35;67.35;103145.91;5076994;27;45450;-77
2021/12/18 03:52:42;;;;;;;;;42.25;32.25;;;;;7.14;68.10;103130.03;5071828;27;45684;-74
2021/12/18 03:55:07;;;;;;;;;31.50;28.50;;;;;6.47;67.92;103012.59;5073773;27;46356;-76
2021/12/18 03:57:34;;;;;;;;;39.25;31.00;;;;;7.14;68.42;103132.66;5077963;27;45876;-75
2021/12/18 03:59:59;;;;;;;;;32.00;27.50;;;;;6.02;68.45;102952.00;5094797;27;45449;-73
2021/12/18 04:02:27;;;;;;;;;31.75;25.00;;;;;7.03;68.73;103133.75;5095240;27;45631;-74
2021/12/18 04:04:53;;;;;;;;;38.50;33.25;;;;;6.85;69.10;103123.22;5092280;27;45327;-75
2021/12/18 04:07:19;;;;;;;;;39.75;34.00;;;;;6.96;69.50;103134.25;5078247;27;45471;-76
2021/12/18 04:09:47;;;;;;;;;42.50;34.00;;;;;6.75;69.84;103103.56;5093935;27;45540;-76
2021/12/18 04:12:13;;;;;;;;;44.50;33.50;;;;;6.93;70.20;103145.38;5082593;27;45419;-74
2021/12/18 04:14:38;;;;;;;;;36.75;28.75;;;;;6.94;70.19;103138.47;5078735;27;45418;-74
2021/12/18 04:17:05;;;;;;;;;35.50;32.00;;;;;7.00;70.24;103138.81;5078664;27;45339;-74
2021/12/18 04:19:31;;;;;;;;;39.75;31.75;;;;;6.54;69.90;103039.88;5078093;27;45448;-74
2021/12/18 04:21:57;;;;;;;;;35.75;32.50;;;;;6.76;69.84;103081.03;5076748;28;45472;-74
2021/12/18 04:24:22;;;;;;;;;30.50;25.75;;;;;7.21;69.88;103134.78;5076673;28;45441;-74
2021/12/18 04:26:48;;;;;;;;;38.00;31.00;;;;;7.07;69.17;103112.28;5069848;27;45454;-73
2021/12/18 04:29:14;;;;;;;;;40.50;33.25;;;;;7.15;69.43;103130.94;5096456;27;45917;-74
2021/12/18 04:31:40;;;;;;;;;38.75;30.25;;;;;6.87;69.91;103090.31;5079377;27;45508;-74
2021/12/18 04:34:07;;;;;;;;;34.75;31.00;;;;;7.16;69.69;103136.22;5074141;28;45611;-75
2021/12/18 04:36:32;;;;;;;;;36.25;31.75;;;;;6.28;69.89;102975.97;5059546;28;45538;-75
2021/12/18 04:38:59;;;;;;;;;32.25;29.75;;;;;7.12;69.84;103144.69;5059859;28;45363;-74
2021/12/18 04:41:36;;;;;;;;;37.50;32.50;;;;;7.13;69.60;103133.44;5056390;28;45746;-74
2021/12/18 04:44:03;;;;;;;;;36.25;32.25;;;;;7.04;69.92;103129.44;5073539;28;46409;-74
2021/12/18 04:46:29;;;;;;;;;30.75;25.75;;;;;7.19;69.83;103140.72;5073737;27;45772;-73
2021/12/18 04:48:54;;;;;;;;;34.25;29.25;;;;;7.21;70.11;103147.81;5081676;28;45397;-73
2021/12/18 04:51:20;;;;;;;;;36.75;32.00;;;;;7.25;69.62;103142.75;5079719;27;45680;-73
2021/12/18 04:53:46;;;;;;;;;39.75;33.25;;;;;7.25;70.38;103141.03;5076966;27;45439;-74
2021/12/18 04:56:12;;;;;;;;;36.75;32.25;;;;;7.26;69.54;103149.75;5056586;28;45514;-73
2021/12/18 04:58:37;;;;;;;;;31.25;27.75;;;;;6.56;70.18;103028.75;5042098;28;45480;-73
2021/12/18 05:01:03;;;;;;;;;36.25;31.75;;;;;6.56;69.70;103033.06;5056881;28;45489;-73
2021/12/18 05:03:30;;;;;;;;;36.75;30.25;;;;;7.33;70.00;103144.03;5056276;28;45346;-76
2021/12/18 05:05:55;;;;;;;;;34.00;28.25;;;;;6.79;69.64;103053.44;5057882;28;45371;-75
2021/12/18 05:08:21;;;;;;;;;40.00;31.75;;;;;7.36;69.72;103150.34;5061720;28;45521;-73
2021/12/18 05:10:47;;;;;;;;;33.50;26.25;;;;;7.30;69.78;103147.38;5075268;27;45643;-75
2021/12/18 05:13:13;;;;;;;;;38.00;33.50;;;;;6.76;69.92;103055.91;5082420;27;45377;-75
2021/12/18 05:15:39;;;;;;;;;38.25;34.00;;;;;6.90;69.81;103089.59;5077496;27;45398;-74
2021/12/18 05:18:04;;;;;;;;;29.25;26.75;;;;;7.31;69.35;103156.09;5076687;28;45407;-74
2021/12/18 05:20:30;;;;;;;;;37.75;32.00;;;;;7.18;69.80;103128.47;5077161;27;45426;-73
2021/12/18 05:22:56;;;;;;;;;37.00;32.00;;;;;7.27;69.59;103139.41;5057690;28;46962;-75
2021/12/18 05:25:21;;;;;;;;;37.25;29.50;;;;;6.75;69.88;103061.91;5076927;27;45515;-75
2021/12/18 05:27:47;;;;;;;;;47.00;31.50;;;;;6.53;69.60;103018.16;5038375;28;45685;-73
2021/12/18 05:30:13;;;;;;;;;27.25;25.50;;;;;7.29;69.99;103155.16;5060339;28;45312;-73
2021/12/18 05:32:38;;;;;;;;;35.00;31.75;;;;;7.12;69.77;103121.25;5056160;28;46290;-74
2021/12/18 05:35:05;;;;;;;;;33.75;31.50;;;;;7.04;69.88;103117.31;5055885;28;45315;-74
2021/12/18 05:37:43;;;;;;;;;36.75;31.75;;;;;7.06;69.52;103112.19;5056213;28;45624;-74
2021/12/18 05:40:11;;;;;;;;;38.75;33.00;;;;;6.52;69.74;103049.31;5048812;28;45537;-74
2021/12/18 05:42:37;;;;;;;;;39.75;31.25;;;;;6.95;69.68;103128.13;5075851;27;46078;-74
2021/12/18 05:45:05;;;;;;;;;40.50;32.00;;;;;6.51;70.20;103050.16;5074767;27;45375;-74
2021/12/18 05:47:31;;;;;;;;;36.75;31.00;;;;;6.68;69.96;103066.69;5072470;28;45430;-74
2021/12/18 05:49:57;;;;;;;;;37.50;31.00;;;;;6.82;69.84;103104.81;5081626;27;45417;-74
2021/12/18 05:52:23;;;;;;;;;40.25;29.75;;;;;6.80;70.06;103116.84;5080170;27;46144;-74
2021/12/18 05:54:49;;;;;;;;;36.50;29.00;;;;;6.61;69.86;103083.69;5077227;27;45893;-74
2021/12/18 05:57:15;;;;;;;;;39.25;32.75;;;;;6.31;70.02;103046.41;5058539;27;45801;-75
2021/12/18 05:59:41;;;;;;;;;34.00;31.50;;;;;6.49;70.13;103056.97;5077717;27;45521;-73
2021/12/18 06:02:14;;;;;;;;;42.25;32.00;;;;;6.82;70.52;103130.88;5079060;27;45481;-74
2021/12/18 06:04:42;;;;;;;;;38.50;29.25;;;;;6.35;70.65;103035.38;5091881;27;45414;-74
2021/12/18 06:07:16;;;;;;;;;31.50;30.00;;;;;6.86;70.50;103113.69;5096171;27;45433;-74
2021/12/18 06:09:41;;;;;;;;;39.00;32.00;;;;;7.05;69.91;103142.56;5097192;27;45546;-75
2021/12/18 06:12:07;;;;;;;;;32.50;30.25;;;;;6.27;70.03;102998.50;5085211;27;47552;-74
2021/12/18 06:14:33;;;;;;;;;35.50;31.75;;;;;6.50;70.06;103050.94;5102836;27;45330;-72
2021/12/18 06:16:59;;;;;;;;;33.00;28.00;;;;;6.19;70.19;103010.16;5083158;27;45284;-74
2021/12/18 06:19:24;;;;;;;;;37.25;32.00;;;;;6.12;69.73;102982.00;5081817;27;45284;-74
2021/12/18 06:21:50;;;;;;;;;32.00;29.75;;;;;7.03;69.98;103144.19;5085775;27;45471;-74
2021/12/18 06:24:16;;;;;;;;;40.50;33.25;;;;;6.84;69.92;103118.81;5078283;27;45768;-75
2021/12/18 06:26:42;;;;;;;;;34.00;31.00;;;;;5.96;70.31;102949.06;5099991;27;45519;-74
2021/12/18 06:29:08;;;;;;;;;30.75;27.50;;;;;6.98;70.94;103138.72;5060857;27;45470;-74
2021/12/18 06:31:37;;;;;;;;;33.00;27.00;;;;;6.78;70.14;103102.84;5059738;28;46029;-73
2021/12/18 06:34:02;;;;;;;;;30.25;25.25;;;;;6.29;70.05;103020.31;5057553;28;45431;-75
2021/12/18 06:36:28;;;;;;;;;34.50;30.75;;;;;6.97;70.22;103138.63;5043807;28;45425;-75
2021/12/18 06:38:54;;;;;;;;;35.50;29.75;;;;;6.97;70.80;103138.63;5076157;27;45539;-74
2021/12/18 06:41:20;;;;;;;;;34.25;29.50;;;;;7.06;70.58;103146.94;5079377;27;46058;-73
2021/12/18 06:43:45;;;;;;;;;40.75;31.00;;;;;6.60;70.47;103055.88;5081303;28;45625;-77
2021/12/18 06:46:12;;;;;;;;;35.50;27.75;;;;;7.08;70.59;103139.22;5076156;28;45552;-75
2021/12/18 06:48:37;;;;;;;;;35.75;31.00;;;;;5.98;70.60;102951.72;5057243;28;45491;-75
2021/12/18 06:51:03;;;;;;;;;29.50;28.75;;;;;6.88;70.60;103105.16;5082556;27;46163;-75
2021/12/18 06:53:28;;;;;;;;;30.50;25.25;;;;;6.84;70.41;103089.28;5077455;27;45485;-76
2021/12/18 06:55:55;;;;;;;;;31.75;27.00;;;;;7.16;70.53;103148.34;5096151;27;45472;-76
2021/12/18 06:58:20;;;;;;;;;39.75;31.50;;;;;7.17;70.23;103161.47;5096104;27;45403;-75
2021/12/18 07:00:46;;;;;;;;;30.25;25.50;;;;;7.19;69.91;103157.25;5097175;27;46151;-75
2021/12/18 07:03:12;;;;;;;;;31.25;27.00;;;;;7.16;69.90;103159.66;5099602;27;45459;-75
2021/12/18 07:05:38;;;;;;;;;38.50;32.75;;;;;6.84;70.16;103099.69;5092771;27;45488;-75
2021/12/18 07:08:03;;;;;;;;;37.75;28.75;;;;;7.09;69.90;103151.44;5079700;27;45259;-74
2021/12/18 07:10:31;;;;;;;;;29.25;27.50;;;;;7.03;70.03;103146.78;5077846;28;46432;-74
2021/12/18 07:12:57;;;;;;;;;39.75;33.75;;;;;6.12;69.90;103002.81;5070665;28;45903;-75
2021/12/18 07:15:23;;;;;;;;;38.00;31.50;;;;;6.94;70.86;103139.34;5077250;28;45494;-74
2021/12/18 07:17:48;;;;;;;;;42.25;31.75;;;;;6.48;70.56;103056.06;5064520;28;45544;-74
2021/12/18 07:20:14;;;;;;;;;33.25;30.00;;;;;6.70;70.14;103067.69;5062735;27;46036;-74
2021/12/18 07:22:41;;;;;;;;;32.75;26.75;;;;;7.26;70.00;103150.66;5075613;28;45331;-75
2021/12/18 07:25:08;;;;;;;;;33.25;25.25;;;;;7.32;69.92;103156.19;5046991;28;45344;-75
2021/12/18 07:27:33;;;;;;;;;30.75;26.75;;;;;6.92;69.51;103087.97;5059391;28;45605;-75
2021/12/18 07:29:59;;;;;;;;;36.50;34.00;;;;;6.78;69.14;103061.16;5074418;27;46673;-74
2021/12/18 07:32:26;;;;;;;;;38.25;31.75;;;;;7.21;68.99;103119.13;5056290;28;45835;-76
2021/12/18 07:34:53;;;;;;;;;36.00;29.50;;;;;6.77;69.02;103042.03;5045899;27;45606;-74
2021/12/18 07:37:20;;;;;;;;;25.25;23.00;;;;;7.51;69.16;103163.28;5094496;27;45488;-76
2021/12/18 07:39:45;;;;;;;;;31.00;27.75;;;;;6.80;68.96;103056.94;5076219;27;46915;-75
2021/12/18 07:42:11;;;;;;;;;29.00;23.75;;;;;7.05;69.21;103087.84;5078212;27;45410;-74
2021/12/18 07:44:40;;;;;;;;;30.50;28.00;;;;;7.55;68.56;103169.59;5099242;27;45436;-73
2021/12/18 07:47:06;;;;;;;;;32.50;27.25;;;;;7.14;68.30;103105.66;5099565;27;45667;-74
2021/12/18 07:49:31;;;;;;;;;31.00;28.00;;;;;6.63;68.51;103029.09;5097789;27;45596;-75
2021/12/18 07:52:01;;;;;;;;;28.25;25.50;;;;;7.45;68.88;103170.81;5098203;27;45475;-73
2021/12/18 07:54:27;;;;;;;;;36.00;27.25;;;;;6.30;68.65;102987.38;5094907;27;45381;-75
2021/12/18 07:56:53;;;;;;;;;34.50;31.00;;;;;7.18;68.83;103152.81;5096926;27;45354;-76
2021/12/18 07:59:19;;;;;;;;;34.75;26.75;;;;;7.43;69.27;103173.31;5080375;27;47242;-74
2021/12/18 08:01:44;;;;;;;;;33.00;26.75;;;;;7.06;68.33;103114.78;5084920;27;45417;-74
2021/12/18 08:04:10;;;;;;;;;31.00;28.25;;;;;7.03;68.54;103096.41;5078633;27;45344;-73
2021/12/18 08:06:36;;;;;;;;;30.00;24.25;;;;;7.30;68.25;103123.03;5079298;27;45433;-75
2021/12/18 08:09:02;;;;;;;;;33.25;26.50;;;;;7.22;68.07;103115.69;5081285;27;46200;-74
2021/12/18 08:11:28;;;;;;;;;34.00;29.25;;;;;7.36;68.17;103152.06;5080769;27;45694;-75
2021/12/18 08:13:54;;;;;;;;;34.25;27.75;;;;;7.38;68.13;103145.19;5100894;27;45536;-76
2021/12/18 08:16:19;;;;;;;;;30.25;28.75;;;;;7.06;68.15;103062.69;5086189;27;45637;-75
2021/12/18 08:18:45;;;;;;;;;31.50;26.00;;;;;7.77;67.57;103154.22;5079367;27;46084;-74
2021/12/18 08:21:11;;;;;;;;;24.25;21.25;;;;;7.88;67.29;103153.88;5057490;28;45640;-74
2021/12/18 08:23:37;;;;;;;;;31.50;29.25;;;;;8.13;66.61;103163.88;5087719;27;45486;-75
2021/12/18 08:26:03;;;;;;;;;31.50;26.00;;;;;8.65;65.50;103169.13;5071405;27;45657;-74
2021/12/18 08:28:29;;;;;;;;;27.25;24.50;;;;;8.91;64.46;103154.69;5079133;27;46186;-75
2021/12/18 08:30:54;;;;;;;;;30.75;26.75;;;;;8.70;62.97;103047.44;5053676;28;45410;-75
2021/12/18 08:33:20;;;;;;;;;26.25;24.50;;;;;10.00;61.02;103185.81;5058102;28;45319;-74
2021/12/18 08:35:46;;;;;;;;;27.75;20.75;;;;;10.90;59.43;103166.84;5060288;28;45393;-75
2021/12/18 08:38:11;;;;;;;;;35.00;30.00;;;;;11.63;57.63;103125.03;5078218;27;45529;-75
2021/12/18 08:40:37;;;;;;;;;34.00;27.75;;;;;12.67;55.29;103160.94;5061371;28;45413;-73
2021/12/18 08:43:04;;;;;;;;;36.50;28.75;;;;;12.15;54.74;103085.66;5079634;27;45423;-74
2021/12/18 08:45:30;;;;;;;;;26.00;23.50;;;;;12.74;52.52;103010.41;5077134;27;45517;-73
2021/12/18 08:47:56;;;;;;;;;27.50;23.00;;;;;15.25;49.56;103145.00;5077251;28;46116;-73
2021/12/18 08:50:24;;;;;;;;;19.00;19.00;;;;;16.53;45.72;103089.19;5077077;27;45488;-75
2021/12/18 08:52:50;;;;;;;;;19.75;19.00;;;;;17.16;43.80;103043.28;5058929;28;45879;-75
2021/12/18 08:55:17;;;;;;;;;22.00;20.00;;;;;18.70;41.99;103157.81;5082877;27;45457;-74
2021/12/18 08:57:43;;;;;;;;;24.00;21.00;;;;;18.77;40.38;103064.09;5079997;27;46773;-75
2021/12/18 09:00:12;;;;;;;;;19.33;17.33;;;;;20.18;39.34;103146.88;5096417;27;45424;-74
2021/12/18 09:02:40;;;;;;;;;25.00;22.00;;;;;21.07;37.54;103146.78;5086187;27;45699;-76
2021/12/18 09:05:07;;;;;;;;;23.33;19.33;;;;;21.91;34.12;103142.78;5080421;27;45380;-75
2021/12/18 09:07:33;;;;;;;;;19.67;16.33;;;;;22.18;33.51;103135.47;5076767;27;45472;-73
2021/12/18 09:09:59;;;;;;;;;20.67;17.33;;;;;22.29;32.90;103021.50;5076937;27;45470;-73
2021/12/18 09:12:25;;;;;;;;;24.33;22.00;;;;;24.00;32.08;103135.09;5059338;28;45379;-75
2021/12/18 09:14:51;;;;;;;;;18.67;16.67;;;;;24.85;31.42;103130.91;5077188;27;45469;-75
2021/12/18 09:17:17;;;;;;;;;22.33;19.33;;;;;25.23;29.67;103145.38;5044559;28;47730;-73
2021/12/18 09:19:42;;;;;;;;;21.00;16.33;;;;;26.00;28.60;103125.69;5059094;28;45350;-74
2021/12/18 09:22:11;;;;;;;;;17.00;13.33;;;;;26.64;27.60;103086.38;5086892;27;45272;-75
2021/12/18 09:24:38;;;;;;;;;22.33;20.00;;;;;26.63;25.17;103016.56;5081102;28;45489;-74
2021/12/18 09:27:05;;;;;;;;;15.67;15.67;;;;;27.44;25.63;103107.34;5077335;28;45512;-75
2021/12/18 09:29:32;;;;;;;;;29.00;21.33;;;;;27.48;23.92;103101.81;5076357;27;45305;-73
2021/12/18 09:31:58;;;;;;;;;27.67;24.33;;;;;26.81;23.93;102942.50;5075686;27;45420;-74
2021/12/18 09:34:26;;;;;;;;;19.00;15.67;;;;;27.86;25.32;103115.88;5074034;27;45490;-75
2021/12/18 09:36:52;;;;;;;;;21.67;17.67;;;;;26.51;23.80;102974.75;5095849;27;45507;-75
2021/12/18 09:39:18;;;;;;;;;24.67;21.67;;;;;27.44;23.72;103104.66;5095130;27;45547;-74
2021/12/18 09:41:48;;;;;;;;;18.00;17.33;;;;;27.01;23.41;102925.75;5061357;28;45488;-74
2021/12/18 09:44:14;;;;;;;;;23.00;20.33;;;;;28.42;22.92;103100.47;5080612;27;45346;-74
2021/12/18 09:46:40;;;;;;;;;20.00;15.33;;;;;28.70;22.21;103098.56;5079513;28;45457;-74
2021/12/18 09:49:07;;;;;;;;;23.00;15.67;;;;;29.26;22.18;103109.94;5080608;27;45616;-75
2021/12/18 09:51:33;;;;;;;;;20.00;18.33;;;;;29.80;21.48;103100.56;5100177;27;45542;-73
2021/12/18 09:53:58;;;;;;;;;23.00;16.00;;;;;30.25;21.50;103064.38;5101650;27;45412;-74
2021/12/18 09:56:25;;;;;;;;;23.00;17.33;;;;;30.84;21.35;103106.81;5078795;27;47211;-74
2021/12/18 09:58:52;;;;;;;;;22.33;21.00;;;;;31.02;19.81;103110.50;5074275;27;45539;-76
2021/12/18 10:01:18;;;;;;;;;21.33;19.00;;;;;31.50;19.62;103092.00;5091319;27;45978;-75
2021/12/18 10:03:52;;;;;;;;;17.75;16.75;;;;;32.03;19.76;103057.72;5085092;27;45350;-76
2021/12/18 10:06:41;;;;;;;;;17.25;16.50;;;;;32.26;18.42;103091.75;5059944;28;45468;-76
2021/12/18 10:09:08;;;;;;;;;21.25;17.75;;;;;32.41;18.73;103093.63;5056326;28;45763;-74
2021/12/18 10:11:44;;;;;;;;;17.00;15.25;;;;;32.66;18.57;103065.22;5056358;28;45347;-75
2021/12/18 10:14:09;;;;;;;;;16.50;15.50;;;;;33.25;18.24;103074.56;5060486;28;45359;-74
2021/12/18 10:16:42;;;;;;;;;17.75;15.25;;;;;32.83;17.22;102970.16;5066716;27;45742;-74
2021/12/18 10:19:32;;;;;;;;;18.75;15.50;;;;;33.02;17.17;102986.25;5096165;27;45552;-75
2021/12/18 10:22:03;;;;;;;;;18.50;14.00;;;;;34.31;17.17;103086.41;5099252;27;45463;-77
2021/12/18 10:24:30;;;;;;;;;15.50;15.50;;;;;34.91;16.92;103079.94;5078321;27;45622;-76
2021/12/18 10:26:57;;;;;;;;;16.25;15.75;;;;;35.05;16.32;103082.66;5096967;27;45863;-76
2021/12/18 10:29:34;;;;;;;;;15.60;15.60;;;;;34.88;16.53;103083.72;5097311;27;45520;-75
2021/12/18 10:32:06;;;;;;;;;19.00;18.25;;;;;35.23;16.75;103064.22;5090361;27;45439;-78
2021/12/18 10:34:31;;;;;;;;;15.75;15.50;;;;;35.28;15.88;102984.91;5059519;27;45465;-76
2021/12/18 10:37:14;;;;;;;;;19.25;18.75;;;;;35.51;15.66;103035.13;5076515;27;46435;-76
2021/12/18 10:39:50;;;;;;;;;20.25;18.50;;;;;35.38;15.93;102986.03;5060465;28;45429;-75
2021/12/18 10:42:26;;;;;;;;;13.25;13.25;;;;;36.14;15.55;103064.41;5071606;27;45413;-79
2021/12/18 10:45:06;;;;;;;;;17.75;16.75;;;;;36.51;15.32;103050.84;5058475;28;45385;-75
2021/12/18 10:47:49;;;;;;;;;13.40;13.40;;;;;36.99;15.80;103061.03;5095131;27;45502;-75
2021/12/18 10:50:33;;;;;;;;;15.20;14.40;;;;;37.17;14.69;103059.69;5079061;27;45672;-75
2021/12/18 10:53:09;;;;;;;;;17.40;17.00;;;;;37.35;14.70;103060.13;5100791;27;45432;-74
2021/12/18 10:55:39;;;;;;;;;17.75;17.00;;;;;37.04;14.41;102985.06;5101305;27;45714;-74
2021/12/18 10:58:08;;;;;;;;;15.40;12.60;;;;;37.14;14.25;102986.16;5098085;27;45570;-75
2021/12/18 11:00:42;;;;;;;;;19.20;19.20;;;;;37.07;13.48;103034.94;5095657;27;45382;-75
2021/12/18 11:03:20;;;;;;;;;14.60;14.60;;;;;35.80;14.43;102981.34;5095369;27;45342;-74
2021/12/18 11:06:05;;;;;;;;;15.00;15.00;;;;;35.64;14.58;103020.59;5077448;27;45457;-73
2021/12/18 11:08:31;;;;;;;;;16.75;15.00;;;;;35.24;14.80;103006.94;5078645;27;46849;-75
2021/12/18 11:13:51;;;;;;;;;16.50;13.75;;;;;35.41;15.29;103024.00;5096183;27;45721;-75
2021/12/18 11:16:18;;;;;;;;;18.75;12.25;;;;;32.67;16.73;102961.13;5095490;27;45472;-73
2021/12/18 11:18:46;;;;;;;;;16.75;15.00;;;;;29.28;20.16;103041.50;5088554;27;45361;-76
2021/12/18 11:21:12;;;;;;;;;20.75;18.00;;;;;26.41;22.71;103022.53;5075802;27;45552;-74
2021/12/18 11:23:47;;;;;;;;;27.33;22.67;;;;;24.70;25.01;103046.31;5087301;27;45738;-75
2021/12/18 11:26:14;;;;;;;;;18.67;16.67;;;;;23.25;26.49;103026.53;5097477;27;45380;-78
2021/12/18 11:28:43;;;;;;;;;21.00;16.33;;;;;21.48;27.77;102939.56;5096234;27;45315;-77
2021/12/18 11:31:10;;;;;;;;;17.00;15.67;;;;;21.39;28.80;103068.44;5099728;27;45670;-78
2021/12/18 11:33:37;;;;;;;;;20.00;14.33;;;;;20.54;29.96;103063.44;5095738;27;45434;-76
2021/12/18 11:36:04;;;;;;;;;22.33;19.00;;;;;18.91;31.27;102942.94;5095343;27;45816;-75
2021/12/18 11:38:37;;;;;;;;;23.67;18.00;;;;;18.72;33.28;103056.09;5080331;27;47705;-76
2021/12/18 11:41:04;;;;;;;;;15.00;15.00;;;;;17.89;34.57;103017.50;5099623;27;45335;-75
2021/12/18 11:43:32;;;;;;;;;22.67;18.33;;;;;17.64;35.16;103045.56;5099784;27;45208;-76
2021/12/18 11:46:02;;;;;;;;;23.00;21.00;;;;;16.47;35.82;102918.06;5098166;27;45351;-78
2021/12/18 11:48:55;;;;;;;;;20.33;18.67;;;;;16.58;36.45;103005.47;5090213;27;45441;-75
2021/12/18 11:51:21;;;;;;;;;20.00;19.00;;;;;16.41;37.29;103044.94;5098880;27;45436;-77
2021/12/18 11:53:46;;;;;;;;;21.33;18.67;;;;;15.66;38.36;102957.41;5099166;27;45389;-76
2021/12/18 11:56:14;;;;;;;;;23.67;18.33;;;;;15.34;38.68;102948.94;5095520;27;45448;-74
2021/12/18 11:58:45;;;;;;;;;22.00;17.33;;;;;15.10;39.29;102978.41;5094790;27;45528;-74
2021/12/18 12:01:25;;;;;;;;;18.33;16.67;;;;;15.12;39.84;103010.13;5095198;27;45349;-75
2021/12/18 12:03:50;;;;;;;;;19.33;18.33;;;;;15.13;40.97;103039.19;5070655;27;45646;-75
2021/12/18 12:06:28;;;;;;;;;22.00;17.67;;;;;14.93;40.72;103037.91;5058548;28;45472;-75
2021/12/18 12:09:25;;;;;;;;;16.33;16.00;;;;;14.57;40.66;103015.16;5056470;28;46209;-75